Pagrindinis puslapis
METAR-TAF:

METAR-TAF

Oro uostai :

Velykų sala, Čilė

platuma: 27-09S, ilguma: 109-25W, Aukštis: 51 m

Dabartinis oras

Ataskaita buvo paskelbta 36 minutes, ne 12:00 UTC
Vėjas 6 kt iš Rytų
Temperatūra 22°C
Drėgmė 83%
Slėgis 1018 hPa
Matomumas 10 km arba daugiau

METAR: SCIP 311200Z AUTO 08006KT 9999 SCT057/// SCT067/// 22/19 Q1018 NOSIG

Laikas: 07:36 (12:36 UTC)


TAF: trūkstamas

Orai ataskaitas ir orų prognozės (METAR, TAF).

turimą stotys yra geltonos ir raudonos taškus žemėlapyje.

Perkelti pele per norėdami pamatyti stoties vardą.

Tada spustelėkite, norėdami matyti oro stebėjimo ir prognozės.

Norėdami pakeisti žemėlapį: spustelėkite ant žalios mygtukų su juodo kryžiaus žemyn,; žalią mygtuką su brūkšneliu, jei norite nutolinti; arba žalių rodyklių gretimoms žemėlapius.


METAR-TAF: